sensor_id;sensor_type;location;lat;lon;timestamp;P1;durP1;ratioP1;P2;durP2;ratioP2
23743;SDS011;12052;53.478;10.182;2023-12-20T00:01:45;10.82;;;0.90;;
23743;SDS011;12052;53.478;10.182;2023-12-20T00:04:11;7.30;;;1.20;;
23743;SDS011;12052;53.478;10.182;2023-12-20T00:06:37;9.65;;;1.50;;
23743;SDS011;12052;53.478;10.182;2023-12-20T00:09:02;5.03;;;1.08;;
23743;SDS011;12052;53.478;10.182;2023-12-20T00:11:28;7.35;;;1.25;;
23743;SDS011;12052;53.478;10.182;2023-12-20T00:13:53;7.68;;;1.13;;
23743;SDS011;12052;53.478;10.182;2023-12-20T00:16:19;7.72;;;0.82;;
23743;SDS011;12052;53.478;10.182;2023-12-20T00:18:44;3.92;;;0.80;;
23743;SDS011;12052;53.478;10.182;2023-12-20T00:21:10;9.52;;;1.08;;
23743;SDS011;12052;53.478;10.182;2023-12-20T00:23:36;1.85;;;0.85;;
23743;SDS011;12052;53.478;10.182;2023-12-20T00:26:01;3.63;;;0.77;;
23743;SDS011;12052;53.478;10.182;2023-12-20T00:28:27;4.53;;;1.33;;
23743;SDS011;12052;53.478;10.182;2023-12-20T00:30:52;12.15;;;1.20;;
23743;SDS011;12052;53.478;10.182;2023-12-20T00:33:18;11.35;;;1.70;;
23743;SDS011;12052;53.478;10.182;2023-12-20T00:35:44;12.38;;;1.85;;
23743;SDS011;12052;53.478;10.182;2023-12-20T00:38:09;9.52;;;0.90;;
23743;SDS011;12052;53.478;10.182;2023-12-20T00:40:36;1.58;;;1.05;;
23743;SDS011;12052;53.478;10.182;2023-12-20T00:43:02;7.72;;;1.25;;
23743;SDS011;12052;53.478;10.182;2023-12-20T00:45:28;9.85;;;1.45;;
23743;SDS011;12052;53.478;10.182;2023-12-20T00:47:53;4.85;;;1.25;;
23743;SDS011;12052;53.478;10.182;2023-12-20T00:50:19;5.72;;;1.20;;
23743;SDS011;12052;53.478;10.182;2023-12-20T00:52:46;9.63;;;1.15;;
23743;SDS011;12052;53.478;10.182;2023-12-20T00:55:12;1.65;;;0.85;;
23743;SDS011;12052;53.478;10.182;2023-12-20T00:57:38;8.80;;;1.52;;
23743;SDS011;12052;53.478;10.182;2023-12-20T01:00:04;7.97;;;0.95;;
23743;SDS011;12052;53.478;10.182;2023-12-20T01:02:30;2.97;;;0.75;;
23743;SDS011;12052;53.478;10.182;2023-12-20T01:04:56;5.65;;;1.50;;
23743;SDS011;12052;53.478;10.182;2023-12-20T01:07:21;8.00;;;1.10;;
23743;SDS011;12052;53.478;10.182;2023-12-20T01:09:47;9.30;;;1.48;;
23743;SDS011;12052;53.478;10.182;2023-12-20T01:12:13;12.63;;;0.90;;
23743;SDS011;12052;53.478;10.182;2023-12-20T01:14:38;4.40;;;0.98;;
23743;SDS011;12052;53.478;10.182;2023-12-20T01:17:04;7.97;;;1.05;;
23743;SDS011;12052;53.478;10.182;2023-12-20T01:19:30;3.08;;;1.30;;
23743;SDS011;12052;53.478;10.182;2023-12-20T01:21:56;8.52;;;2.10;;
23743;SDS011;12052;53.478;10.182;2023-12-20T01:24:21;2.00;;;1.23;;
23743;SDS011;12052;53.478;10.182;2023-12-20T01:26:47;11.68;;;1.20;;
23743;SDS011;12052;53.478;10.182;2023-12-20T01:29:12;6.72;;;1.33;;
23743;SDS011;12052;53.478;10.182;2023-12-20T01:31:39;9.63;;;1.45;;
23743;SDS011;12052;53.478;10.182;2023-12-20T01:34:05;8.43;;;1.13;;
23743;SDS011;12052;53.478;10.182;2023-12-20T01:36:31;5.30;;;0.95;;
23743;SDS011;12052;53.478;10.182;2023-12-20T01:38:57;6.65;;;1.63;;
23743;SDS011;12052;53.478;10.182;2023-12-20T01:41:22;7.05;;;1.08;;
23743;SDS011;12052;53.478;10.182;2023-12-20T01:43:48;5.70;;;0.80;;
23743;SDS011;12052;53.478;10.182;2023-12-20T01:46:14;8.75;;;1.95;;
23743;SDS011;12052;53.478;10.182;2023-12-20T01:48:40;2.17;;;0.70;;
23743;SDS011;12052;53.478;10.182;2023-12-20T01:51:06;5.07;;;1.10;;
23743;SDS011;12052;53.478;10.182;2023-12-20T01:53:32;6.13;;;1.30;;
23743;SDS011;12052;53.478;10.182;2023-12-20T01:55:58;14.60;;;1.75;;
23743;SDS011;12052;53.478;10.182;2023-12-20T01:58:24;16.05;;;1.63;;
23743;SDS011;12052;53.478;10.182;2023-12-20T02:00:50;12.50;;;1.75;;
23743;SDS011;12052;53.478;10.182;2023-12-20T02:03:16;4.90;;;1.08;;
23743;SDS011;12052;53.478;10.182;2023-12-20T02:05:43;7.88;;;2.17;;
23743;SDS011;12052;53.478;10.182;2023-12-20T02:08:10;14.30;;;1.40;;
23743;SDS011;12052;53.478;10.182;2023-12-20T02:10:36;12.40;;;1.65;;
23743;SDS011;12052;53.478;10.182;2023-12-20T02:13:01;11.68;;;1.42;;
23743;SDS011;12052;53.478;10.182;2023-12-20T02:15:28;5.38;;;1.08;;
23743;SDS011;12052;53.478;10.182;2023-12-20T02:17:53;9.38;;;1.25;;
23743;SDS011;12052;53.478;10.182;2023-12-20T02:20:19;16.70;;;1.55;;
23743;SDS011;12052;53.478;10.182;2023-12-20T02:22:45;13.70;;;2.72;;
23743;SDS011;12052;53.478;10.182;2023-12-20T02:25:11;15.13;;;2.17;;
23743;SDS011;12052;53.478;10.182;2023-12-20T02:27:36;9.27;;;1.92;;
23743;SDS011;12052;53.478;10.182;2023-12-20T02:30:02;15.25;;;2.33;;
23743;SDS011;12052;53.478;10.182;2023-12-20T02:32:28;10.75;;;1.83;;
23743;SDS011;12052;53.478;10.182;2023-12-20T02:34:54;9.18;;;1.50;;
23743;SDS011;12052;53.478;10.182;2023-12-20T02:37:20;11.45;;;1.92;;
23743;SDS011;12052;53.478;10.182;2023-12-20T02:39:46;10.57;;;1.75;;
23743;SDS011;12052;53.478;10.182;2023-12-20T02:42:11;11.00;;;1.75;;
23743;SDS011;12052;53.478;10.182;2023-12-20T02:44:37;15.38;;;2.10;;
23743;SDS011;12052;53.478;10.182;2023-12-20T02:47:03;3.65;;;1.27;;
23743;SDS011;12052;53.478;10.182;2023-12-20T02:49:28;10.15;;;2.17;;
23743;SDS011;12052;53.478;10.182;2023-12-20T02:51:54;7.05;;;1.67;;
23743;SDS011;12052;53.478;10.182;2023-12-20T02:54:19;4.75;;;1.70;;
23743;SDS011;12052;53.478;10.182;2023-12-20T02:56:45;6.50;;;1.67;;
23743;SDS011;12052;53.478;10.182;2023-12-20T02:59:10;13.27;;;1.45;;
23743;SDS011;12052;53.478;10.182;2023-12-20T03:01:41;9.77;;;1.30;;
23743;SDS011;12052;53.478;10.182;2023-12-20T03:04:07;7.25;;;1.92;;
23743;SDS011;12052;53.478;10.182;2023-12-20T03:06:33;5.82;;;2.22;;
23743;SDS011;12052;53.478;10.182;2023-12-20T03:08:59;9.65;;;1.58;;
23743;SDS011;12052;53.478;10.182;2023-12-20T03:11:27;3.75;;;1.30;;
23743;SDS011;12052;53.478;10.182;2023-12-20T03:13:53;8.60;;;1.80;;
23743;SDS011;12052;53.478;10.182;2023-12-20T03:16:19;9.73;;;1.35;;
23743;SDS011;12052;53.478;10.182;2023-12-20T03:18:45;6.72;;;2.15;;
23743;SDS011;12052;53.478;10.182;2023-12-20T03:21:11;5.43;;;1.88;;
23743;SDS011;12052;53.478;10.182;2023-12-20T03:23:36;11.75;;;1.83;;
23743;SDS011;12052;53.478;10.182;2023-12-20T03:26:02;3.78;;;1.35;;
23743;SDS011;12052;53.478;10.182;2023-12-20T03:28:28;6.47;;;1.40;;
23743;SDS011;12052;53.478;10.182;2023-12-20T03:30:54;5.47;;;1.23;;
23743;SDS011;12052;53.478;10.182;2023-12-20T03:33:20;2.95;;;1.15;;
23743;SDS011;12052;53.478;10.182;2023-12-20T03:35:46;11.23;;;1.95;;
23743;SDS011;12052;53.478;10.182;2023-12-20T03:38:11;8.48;;;1.70;;
23743;SDS011;12052;53.478;10.182;2023-12-20T03:40:37;14.40;;;1.65;;
23743;SDS011;12052;53.478;10.182;2023-12-20T03:43:03;7.68;;;1.38;;
23743;SDS011;12052;53.478;10.182;2023-12-20T03:45:28;12.85;;;1.90;;
23743;SDS011;12052;53.478;10.182;2023-12-20T03:47:54;8.27;;;1.30;;
23743;SDS011;12052;53.478;10.182;2023-12-20T03:50:24;3.58;;;1.00;;
23743;SDS011;12052;53.478;10.182;2023-12-20T03:52:50;3.35;;;1.35;;
23743;SDS011;12052;53.478;10.182;2023-12-20T03:55:16;7.32;;;1.60;;
23743;SDS011;12052;53.478;10.182;2023-12-20T03:57:42;11.10;;;1.60;;
23743;SDS011;12052;53.478;10.182;2023-12-20T04:00:07;11.32;;;1.92;;
23743;SDS011;12052;53.478;10.182;2023-12-20T04:02:37;4.43;;;0.93;;
23743;SDS011;12052;53.478;10.182;2023-12-20T04:05:04;10.68;;;1.50;;
23743;SDS011;12052;53.478;10.182;2023-12-20T04:07:30;6.55;;;1.33;;
23743;SDS011;12052;53.478;10.182;2023-12-20T04:09:56;10.50;;;1.48;;
23743;SDS011;12052;53.478;10.182;2023-12-20T04:12:21;5.15;;;1.20;;
23743;SDS011;12052;53.478;10.182;2023-12-20T04:14:47;9.38;;;1.67;;
23743;SDS011;12052;53.478;10.182;2023-12-20T04:17:12;4.97;;;1.88;;
23743;SDS011;12052;53.478;10.182;2023-12-20T04:19:40;3.30;;;1.30;;
23743;SDS011;12052;53.478;10.182;2023-12-20T04:22:06;6.80;;;1.88;;
23743;SDS011;12052;53.478;10.182;2023-12-20T04:24:32;7.90;;;2.28;;
23743;SDS011;12052;53.478;10.182;2023-12-20T04:26:57;13.05;;;2.33;;
23743;SDS011;12052;53.478;10.182;2023-12-20T04:29:23;14.18;;;2.10;;
23743;SDS011;12052;53.478;10.182;2023-12-20T04:31:48;6.43;;;2.58;;
23743;SDS011;12052;53.478;10.182;2023-12-20T04:34:16;13.00;;;2.50;;
23743;SDS011;12052;53.478;10.182;2023-12-20T04:36:42;4.68;;;2.22;;
23743;SDS011;12052;53.478;10.182;2023-12-20T04:39:07;12.88;;;3.00;;
23743;SDS011;12052;53.478;10.182;2023-12-20T04:41:33;12.85;;;3.13;;
23743;SDS011;12052;53.478;10.182;2023-12-20T04:43:59;9.88;;;3.03;;
23743;SDS011;12052;53.478;10.182;2023-12-20T04:46:25;7.68;;;3.40;;
23743;SDS011;12052;53.478;10.182;2023-12-20T04:48:51;19.60;;;4.30;;
23743;SDS011;12052;53.478;10.182;2023-12-20T04:51:16;12.27;;;3.13;;
23743;SDS011;12052;53.478;10.182;2023-12-20T04:53:42;9.27;;;3.40;;
23743;SDS011;12052;53.478;10.182;2023-12-20T04:56:08;15.63;;;2.95;;
23743;SDS011;12052;53.478;10.182;2023-12-20T04:58:33;5.45;;;1.67;;
23743;SDS011;12052;53.478;10.182;2023-12-20T05:00:59;7.80;;;2.70;;
23743;SDS011;12052;53.478;10.182;2023-12-20T05:03:24;8.57;;;3.45;;
23743;SDS011;12052;53.478;10.182;2023-12-20T05:05:50;18.85;;;2.08;;
23743;SDS011;12052;53.478;10.182;2023-12-20T05:08:16;7.85;;;2.08;;
23743;SDS011;12052;53.478;10.182;2023-12-20T05:10:41;8.48;;;2.47;;
23743;SDS011;12052;53.478;10.182;2023-12-20T05:13:07;9.88;;;2.88;;
23743;SDS011;12052;53.478;10.182;2023-12-20T05:15:33;15.57;;;3.60;;
23743;SDS011;12052;53.478;10.182;2023-12-20T05:17:58;11.25;;;3.65;;
23743;SDS011;12052;53.478;10.182;2023-12-20T05:20:24;9.75;;;2.90;;
23743;SDS011;12052;53.478;10.182;2023-12-20T05:22:49;4.10;;;2.30;;
23743;SDS011;12052;53.478;10.182;2023-12-20T05:25:15;15.02;;;3.03;;
23743;SDS011;12052;53.478;10.182;2023-12-20T05:27:40;9.10;;;3.00;;
23743;SDS011;12052;53.478;10.182;2023-12-20T05:30:06;15.70;;;4.25;;
23743;SDS011;12052;53.478;10.182;2023-12-20T05:32:32;12.98;;;2.38;;
23743;SDS011;12052;53.478;10.182;2023-12-20T05:34:58;9.73;;;2.63;;
23743;SDS011;12052;53.478;10.182;2023-12-20T05:37:23;4.45;;;2.03;;
23743;SDS011;12052;53.478;10.182;2023-12-20T05:39:49;12.63;;;2.42;;
23743;SDS011;12052;53.478;10.182;2023-12-20T05:42:14;10.00;;;3.40;;
23743;SDS011;12052;53.478;10.182;2023-12-20T05:44:40;8.18;;;2.92;;
23743;SDS011;12052;53.478;10.182;2023-12-20T05:47:05;14.60;;;3.25;;
23743;SDS011;12052;53.478;10.182;2023-12-20T05:49:31;8.40;;;2.42;;
23743;SDS011;12052;53.478;10.182;2023-12-20T05:51:57;9.32;;;3.40;;
23743;SDS011;12052;53.478;10.182;2023-12-20T05:54:22;11.48;;;3.28;;
23743;SDS011;12052;53.478;10.182;2023-12-20T05:56:48;10.63;;;4.50;;
23743;SDS011;12052;53.478;10.182;2023-12-20T05:59:14;11.30;;;3.38;;
23743;SDS011;12052;53.478;10.182;2023-12-20T06:01:39;12.52;;;3.80;;
23743;SDS011;12052;53.478;10.182;2023-12-20T06:04:05;12.65;;;3.80;;
23743;SDS011;12052;53.478;10.182;2023-12-20T06:06:30;22.70;;;3.13;;
23743;SDS011;12052;53.478;10.182;2023-12-20T06:08:56;11.65;;;2.97;;
23743;SDS011;12052;53.478;10.182;2023-12-20T06:11:22;6.00;;;2.92;;
23743;SDS011;12052;53.478;10.182;2023-12-20T06:13:48;17.38;;;3.97;;
23743;SDS011;12052;53.478;10.182;2023-12-20T06:16:17;15.23;;;3.85;;
23743;SDS011;12052;53.478;10.182;2023-12-20T06:18:43;7.38;;;2.38;;
23743;SDS011;12052;53.478;10.182;2023-12-20T06:21:09;4.70;;;1.80;;
23743;SDS011;12052;53.478;10.182;2023-12-20T06:23:37;12.10;;;3.03;;
23743;SDS011;12052;53.478;10.182;2023-12-20T06:26:03;8.45;;;1.98;;
23743;SDS011;12052;53.478;10.182;2023-12-20T06:28:29;10.32;;;2.60;;
23743;SDS011;12052;53.478;10.182;2023-12-20T06:30:54;10.52;;;2.80;;
23743;SDS011;12052;53.478;10.182;2023-12-20T06:33:21;7.18;;;2.60;;
23743;SDS011;12052;53.478;10.182;2023-12-20T06:35:47;17.30;;;3.00;;
23743;SDS011;12052;53.478;10.182;2023-12-20T06:38:13;6.43;;;2.10;;
23743;SDS011;12052;53.478;10.182;2023-12-20T06:40:39;11.05;;;2.17;;
23743;SDS011;12052;53.478;10.182;2023-12-20T06:43:04;14.35;;;2.78;;
23743;SDS011;12052;53.478;10.182;2023-12-20T06:45:31;11.07;;;2.85;;
23743;SDS011;12052;53.478;10.182;2023-12-20T06:47:57;11.05;;;2.85;;
23743;SDS011;12052;53.478;10.182;2023-12-20T06:50:23;3.85;;;2.20;;
23743;SDS011;12052;53.478;10.182;2023-12-20T06:52:49;12.20;;;2.67;;
23743;SDS011;12052;53.478;10.182;2023-12-20T06:55:14;13.13;;;2.75;;
23743;SDS011;12052;53.478;10.182;2023-12-20T06:57:40;7.68;;;2.35;;
23743;SDS011;12052;53.478;10.182;2023-12-20T07:00:06;12.50;;;2.33;;
23743;SDS011;12052;53.478;10.182;2023-12-20T07:02:33;8.55;;;2.55;;
23743;SDS011;12052;53.478;10.182;2023-12-20T07:04:59;17.23;;;2.90;;
23743;SDS011;12052;53.478;10.182;2023-12-20T07:07:25;18.15;;;2.17;;
23743;SDS011;12052;53.478;10.182;2023-12-20T07:09:51;13.40;;;2.33;;
23743;SDS011;12052;53.478;10.182;2023-12-20T07:12:17;7.88;;;1.83;;
23743;SDS011;12052;53.478;10.182;2023-12-20T07:14:44;11.57;;;1.92;;
23743;SDS011;12052;53.478;10.182;2023-12-20T07:17:10;8.95;;;2.08;;
23743;SDS011;12052;53.478;10.182;2023-12-20T07:19:38;10.20;;;1.75;;
23743;SDS011;12052;53.478;10.182;2023-12-20T07:22:05;6.55;;;2.22;;
23743;SDS011;12052;53.478;10.182;2023-12-20T07:24:31;12.23;;;2.47;;
23743;SDS011;12052;53.478;10.182;2023-12-20T07:26:57;5.43;;;2.42;;
23743;SDS011;12052;53.478;10.182;2023-12-20T07:29:22;9.13;;;2.50;;
23743;SDS011;12052;53.478;10.182;2023-12-20T07:31:48;15.75;;;2.58;;
23743;SDS011;12052;53.478;10.182;2023-12-20T07:34:13;9.43;;;1.98;;
23743;SDS011;12052;53.478;10.182;2023-12-20T07:36:39;11.43;;;2.20;;
23743;SDS011;12052;53.478;10.182;2023-12-20T07:39:05;4.20;;;1.88;;
23743;SDS011;12052;53.478;10.182;2023-12-20T07:41:30;11.43;;;3.03;;
23743;SDS011;12052;53.478;10.182;2023-12-20T07:43:56;17.65;;;2.92;;
23743;SDS011;12052;53.478;10.182;2023-12-20T07:46:21;6.15;;;2.22;;
23743;SDS011;12052;53.478;10.182;2023-12-20T07:48:48;9.00;;;2.83;;
23743;SDS011;12052;53.478;10.182;2023-12-20T07:51:14;6.90;;;2.40;;
23743;SDS011;12052;53.478;10.182;2023-12-20T07:53:39;6.90;;;1.75;;
23743;SDS011;12052;53.478;10.182;2023-12-20T07:56:15;12.98;;;3.15;;
23743;SDS011;12052;53.478;10.182;2023-12-20T07:58:41;8.35;;;2.45;;
23743;SDS011;12052;53.478;10.182;2023-12-20T08:01:06;9.15;;;2.70;;
23743;SDS011;12052;53.478;10.182;2023-12-20T08:03:32;10.98;;;2.60;;
23743;SDS011;12052;53.478;10.182;2023-12-20T08:05:58;14.07;;;2.22;;
23743;SDS011;12052;53.478;10.182;2023-12-20T08:08:24;8.93;;;1.60;;
23743;SDS011;12052;53.478;10.182;2023-12-20T08:10:50;7.80;;;2.33;;
23743;SDS011;12052;53.478;10.182;2023-12-20T08:13:16;17.90;;;2.90;;
23743;SDS011;12052;53.478;10.182;2023-12-20T08:15:41;8.57;;;2.22;;
23743;SDS011;12052;53.478;10.182;2023-12-20T08:18:07;10.80;;;1.90;;
23743;SDS011;12052;53.478;10.182;2023-12-20T08:20:32;12.57;;;2.53;;
23743;SDS011;12052;53.478;10.182;2023-12-20T08:22:58;7.85;;;1.88;;
23743;SDS011;12052;53.478;10.182;2023-12-20T08:25:23;11.88;;;2.67;;
23743;SDS011;12052;53.478;10.182;2023-12-20T08:27:49;7.63;;;2.70;;
23743;SDS011;12052;53.478;10.182;2023-12-20T08:30:15;12.30;;;2.95;;
23743;SDS011;12052;53.478;10.182;2023-12-20T08:32:42;12.52;;;2.40;;
23743;SDS011;12052;53.478;10.182;2023-12-20T08:35:08;8.68;;;2.97;;
23743;SDS011;12052;53.478;10.182;2023-12-20T08:37:34;5.25;;;1.92;;
23743;SDS011;12052;53.478;10.182;2023-12-20T08:40:00;10.50;;;2.97;;
23743;SDS011;12052;53.478;10.182;2023-12-20T08:42:26;11.68;;;3.85;;
23743;SDS011;12052;53.478;10.182;2023-12-20T08:44:56;9.73;;;2.90;;
23743;SDS011;12052;53.478;10.182;2023-12-20T08:47:24;13.48;;;2.42;;
23743;SDS011;12052;53.478;10.182;2023-12-20T08:49:50;5.53;;;2.08;;
23743;SDS011;12052;53.478;10.182;2023-12-20T08:52:16;9.07;;;1.60;;
23743;SDS011;12052;53.478;10.182;2023-12-20T08:54:41;9.40;;;2.30;;
23743;SDS011;12052;53.478;10.182;2023-12-20T08:57:07;10.20;;;2.92;;
23743;SDS011;12052;53.478;10.182;2023-12-20T08:59:33;13.88;;;2.08;;
23743;SDS011;12052;53.478;10.182;2023-12-20T09:01:58;10.90;;;2.42;;
23743;SDS011;12052;53.478;10.182;2023-12-20T09:04:24;9.52;;;2.30;;
23743;SDS011;12052;53.478;10.182;2023-12-20T09:06:50;15.82;;;3.22;;
23743;SDS011;12052;53.478;10.182;2023-12-20T09:09:16;15.23;;;2.17;;
23743;SDS011;12052;53.478;10.182;2023-12-20T09:11:41;5.30;;;1.35;;
23743;SDS011;12052;53.478;10.182;2023-12-20T09:14:07;9.90;;;2.15;;
23743;SDS011;12052;53.478;10.182;2023-12-20T09:16:33;9.38;;;1.77;;
23743;SDS011;12052;53.478;10.182;2023-12-20T09:18:58;4.00;;;1.45;;
23743;SDS011;12052;53.478;10.182;2023-12-20T09:21:24;2.80;;;1.38;;
23743;SDS011;12052;53.478;10.182;2023-12-20T09:23:50;6.22;;;1.63;;
23743;SDS011;12052;53.478;10.182;2023-12-20T09:26:16;8.77;;;1.40;;
23743;SDS011;12052;53.478;10.182;2023-12-20T09:28:41;8.18;;;1.38;;
23743;SDS011;12052;53.478;10.182;2023-12-20T09:31:07;9.93;;;1.23;;
23743;SDS011;12052;53.478;10.182;2023-12-20T09:33:33;5.10;;;1.02;;
23743;SDS011;12052;53.478;10.182;2023-12-20T09:35:59;5.28;;;1.33;;
23743;SDS011;12052;53.478;10.182;2023-12-20T09:38:24;0.20;;;0.20;;
23743;SDS011;12052;53.478;10.182;2023-12-20T09:40:50;5.03;;;0.80;;
23743;SDS011;12052;53.478;10.182;2023-12-20T09:43:15;0.75;;;0.75;;
23743;SDS011;12052;53.478;10.182;2023-12-20T09:45:45;2.90;;;0.50;;
23743;SDS011;12052;53.478;10.182;2023-12-20T09:48:13;7.38;;;0.93;;
23743;SDS011;12052;53.478;10.182;2023-12-20T09:50:42;2.22;;;0.65;;
23743;SDS011;12052;53.478;10.182;2023-12-20T09:53:09;6.25;;;0.90;;
23743;SDS011;12052;53.478;10.182;2023-12-20T09:55:36;3.13;;;0.60;;
23743;SDS011;12052;53.478;10.182;2023-12-20T09:58:04;5.07;;;0.88;;
23743;SDS011;12052;53.478;10.182;2023-12-20T10:00:31;2.97;;;1.27;;
23743;SDS011;12052;53.478;10.182;2023-12-20T10:02:58;4.93;;;0.90;;
23743;SDS011;12052;53.478;10.182;2023-12-20T10:05:28;2.08;;;0.80;;
23743;SDS011;12052;53.478;10.182;2023-12-20T10:07:55;1.05;;;0.55;;
23743;SDS011;12052;53.478;10.182;2023-12-20T10:10:21;1.85;;;0.57;;
23743;SDS011;12052;53.478;10.182;2023-12-20T10:15:32;0.95;;;0.50;;
23743;SDS011;12052;53.478;10.182;2023-12-20T10:17:58;0.75;;;0.45;;
23743;SDS011;12052;53.478;10.182;2023-12-20T10:20:24;1.15;;;0.52;;
23743;SDS011;12052;53.478;10.182;2023-12-20T10:22:50;2.97;;;0.50;;
23743;SDS011;12052;53.478;10.182;2023-12-20T10:25:18;0.93;;;0.45;;
23743;SDS011;12052;53.478;10.182;2023-12-20T10:27:44;0.57;;;0.40;;
23743;SDS011;12052;53.478;10.182;2023-12-20T10:30:10;2.72;;;0.40;;
23743;SDS011;12052;53.478;10.182;2023-12-20T10:32:36;4.35;;;0.60;;
23743;SDS011;12052;53.478;10.182;2023-12-20T10:35:01;1.27;;;0.47;;
23743;SDS011;12052;53.478;10.182;2023-12-20T10:37:27;0.45;;;0.38;;
23743;SDS011;12052;53.478;10.182;2023-12-20T10:39:53;3.65;;;0.60;;
23743;SDS011;12052;53.478;10.182;2023-12-20T10:42:22;2.30;;;0.73;;
23743;SDS011;12052;53.478;10.182;2023-12-20T10:44:51;0.95;;;0.52;;
23743;SDS011;12052;53.478;10.182;2023-12-20T10:47:18;2.80;;;0.70;;
23743;SDS011;12052;53.478;10.182;2023-12-20T10:49:44;0.95;;;0.60;;
23743;SDS011;12052;53.478;10.182;2023-12-20T10:52:11;2.00;;;0.80;;
23743;SDS011;12052;53.478;10.182;2023-12-20T10:54:38;1.67;;;0.93;;
23743;SDS011;12052;53.478;10.182;2023-12-20T10:57:07;5.28;;;0.50;;
23743;SDS011;12052;53.478;10.182;2023-12-20T10:59:33;2.15;;;0.60;;
23743;SDS011;12052;53.478;10.182;2023-12-20T11:02:01;3.78;;;0.95;;
23743;SDS011;12052;53.478;10.182;2023-12-20T11:04:32;3.20;;;0.60;;
23743;SDS011;12052;53.478;10.182;2023-12-20T11:09:39;4.95;;;0.60;;
23743;SDS011;12052;53.478;10.182;2023-12-20T11:12:18;1.23;;;0.50;;
23743;SDS011;12052;53.478;10.182;2023-12-20T11:15:09;1.88;;;0.55;;
23743;SDS011;12052;53.478;10.182;2023-12-20T11:17:36;2.50;;;0.85;;
23743;SDS011;12052;53.478;10.182;2023-12-20T11:20:06;6.07;;;0.75;;
23743;SDS011;12052;53.478;10.182;2023-12-20T11:22:33;3.72;;;0.80;;
23743;SDS011;12052;53.478;10.182;2023-12-20T11:27:33;3.45;;;0.70;;
23743;SDS011;12052;53.478;10.182;2023-12-20T11:29:59;2.63;;;0.77;;
23743;SDS011;12052;53.478;10.182;2023-12-20T11:32:31;0.73;;;0.45;;
23743;SDS011;12052;53.478;10.182;2023-12-20T11:34:59;4.63;;;0.77;;
23743;SDS011;12052;53.478;10.182;2023-12-20T11:37:37;5.07;;;0.70;;
23743;SDS011;12052;53.478;10.182;2023-12-20T11:40:06;0.93;;;0.55;;
23743;SDS011;12052;53.478;10.182;2023-12-20T11:42:49;5.32;;;0.70;;
23743;SDS011;12052;53.478;10.182;2023-12-20T11:45:20;5.13;;;1.07;;
23743;SDS011;12052;53.478;10.182;2023-12-20T11:47:47;3.20;;;0.68;;
23743;SDS011;12052;53.478;10.182;2023-12-20T11:50:19;10.50;;;1.00;;
23743;SDS011;12052;53.478;10.182;2023-12-20T11:52:45;4.47;;;1.10;;
23743;SDS011;12052;53.478;10.182;2023-12-20T11:55:12;5.57;;;1.17;;
23743;SDS011;12052;53.478;10.182;2023-12-20T11:57:37;2.38;;;0.70;;
23743;SDS011;12052;53.478;10.182;2023-12-20T12:00:03;7.38;;;1.38;;
23743;SDS011;12052;53.478;10.182;2023-12-20T12:02:31;6.20;;;1.10;;
23743;SDS011;12052;53.478;10.182;2023-12-20T12:04:57;8.77;;;1.13;;
23743;SDS011;12052;53.478;10.182;2023-12-20T12:07:23;3.22;;;1.10;;
23743;SDS011;12052;53.478;10.182;2023-12-20T12:09:49;6.97;;;1.00;;
23743;SDS011;12052;53.478;10.182;2023-12-20T12:12:15;8.50;;;1.02;;
23743;SDS011;12052;53.478;10.182;2023-12-20T12:14:42;3.17;;;1.00;;
23743;SDS011;12052;53.478;10.182;2023-12-20T12:17:10;7.47;;;1.58;;
23743;SDS011;12052;53.478;10.182;2023-12-20T12:19:40;6.95;;;1.15;;
23743;SDS011;12052;53.478;10.182;2023-12-20T12:22:07;17.40;;;1.58;;
23743;SDS011;12052;53.478;10.182;2023-12-20T12:24:38;11.32;;;1.75;;
23743;SDS011;12052;53.478;10.182;2023-12-20T12:27:05;9.18;;;1.08;;
23743;SDS011;12052;53.478;10.182;2023-12-20T12:29:32;8.80;;;0.90;;
23743;SDS011;12052;53.478;10.182;2023-12-20T12:31:58;10.55;;;1.55;;
23743;SDS011;12052;53.478;10.182;2023-12-20T12:34:26;4.82;;;1.15;;
23743;SDS011;12052;53.478;10.182;2023-12-20T12:36:53;4.63;;;1.58;;
23743;SDS011;12052;53.478;10.182;2023-12-20T12:39:19;11.30;;;1.02;;
23743;SDS011;12052;53.478;10.182;2023-12-20T12:41:45;6.55;;;1.63;;
23743;SDS011;12052;53.478;10.182;2023-12-20T12:44:10;9.60;;;1.40;;
23743;SDS011;12052;53.478;10.182;2023-12-20T12:46:36;11.25;;;1.77;;
23743;SDS011;12052;53.478;10.182;2023-12-20T12:49:02;7.00;;;1.90;;
23743;SDS011;12052;53.478;10.182;2023-12-20T12:51:27;19.67;;;2.08;;
23743;SDS011;12052;53.478;10.182;2023-12-20T12:53:53;9.07;;;1.48;;
23743;SDS011;12052;53.478;10.182;2023-12-20T12:56:18;7.60;;;1.55;;
23743;SDS011;12052;53.478;10.182;2023-12-20T12:58:44;3.53;;;1.00;;
23743;SDS011;12052;53.478;10.182;2023-12-20T13:01:10;3.92;;;1.20;;
23743;SDS011;12052;53.478;10.182;2023-12-20T13:03:36;4.95;;;0.90;;
23743;SDS011;12052;53.478;10.182;2023-12-20T13:06:02;7.00;;;1.15;;
23743;SDS011;12052;53.478;10.182;2023-12-20T13:08:28;5.30;;;1.35;;
23743;SDS011;12052;53.478;10.182;2023-12-20T13:10:54;14.73;;;1.23;;
23743;SDS011;12052;53.478;10.182;2023-12-20T13:13:22;5.63;;;1.33;;
23743;SDS011;12052;53.478;10.182;2023-12-20T13:15:47;5.15;;;1.42;;
23743;SDS011;12052;53.478;10.182;2023-12-20T13:18:17;6.63;;;1.52;;
23743;SDS011;12052;53.478;10.182;2023-12-20T13:20:44;6.32;;;1.10;;
23743;SDS011;12052;53.478;10.182;2023-12-20T13:23:09;7.20;;;1.52;;
23743;SDS011;12052;53.478;10.182;2023-12-20T13:25:35;11.20;;;2.00;;
23743;SDS011;12052;53.478;10.182;2023-12-20T13:28:01;6.70;;;1.40;;
23743;SDS011;12052;53.478;10.182;2023-12-20T13:30:28;5.22;;;2.00;;
23743;SDS011;12052;53.478;10.182;2023-12-20T13:32:54;18.33;;;2.28;;
23743;SDS011;12052;53.478;10.182;2023-12-20T13:35:20;11.40;;;2.13;;
23743;SDS011;12052;53.478;10.182;2023-12-20T13:37:45;6.65;;;1.95;;
23743;SDS011;12052;53.478;10.182;2023-12-20T13:40:11;5.13;;;1.50;;
23743;SDS011;12052;53.478;10.182;2023-12-20T13:42:37;12.65;;;1.55;;
23743;SDS011;12052;53.478;10.182;2023-12-20T13:45:06;5.95;;;1.85;;
23743;SDS011;12052;53.478;10.182;2023-12-20T13:47:32;7.50;;;1.30;;
23743;SDS011;12052;53.478;10.182;2023-12-20T13:49:58;10.75;;;1.73;;
23743;SDS011;12052;53.478;10.182;2023-12-20T13:52:24;10.02;;;1.85;;
23743;SDS011;12052;53.478;10.182;2023-12-20T13:54:49;10.90;;;2.25;;
23743;SDS011;12052;53.478;10.182;2023-12-20T13:57:15;9.32;;;2.10;;
23743;SDS011;12052;53.478;10.182;2023-12-20T13:59:41;15.10;;;2.58;;
23743;SDS011;12052;53.478;10.182;2023-12-20T14:02:07;11.20;;;2.65;;
23743;SDS011;12052;53.478;10.182;2023-12-20T14:04:33;15.18;;;1.98;;
23743;SDS011;12052;53.478;10.182;2023-12-20T14:06:58;15.77;;;2.50;;
23743;SDS011;12052;53.478;10.182;2023-12-20T14:09:24;10.70;;;2.15;;
23743;SDS011;12052;53.478;10.182;2023-12-20T14:11:50;6.60;;;1.63;;
23743;SDS011;12052;53.478;10.182;2023-12-20T14:14:15;17.80;;;2.45;;
23743;SDS011;12052;53.478;10.182;2023-12-20T14:16:41;10.23;;;2.53;;
23743;SDS011;12052;53.478;10.182;2023-12-20T14:19:10;15.88;;;2.63;;
23743;SDS011;12052;53.478;10.182;2023-12-20T14:21:35;9.35;;;1.90;;
23743;SDS011;12052;53.478;10.182;2023-12-20T14:24:01;11.77;;;2.50;;
23743;SDS011;12052;53.478;10.182;2023-12-20T14:26:28;12.02;;;3.05;;
23743;SDS011;12052;53.478;10.182;2023-12-20T14:28:54;11.50;;;1.80;;
23743;SDS011;12052;53.478;10.182;2023-12-20T14:31:20;8.85;;;1.77;;
23743;SDS011;12052;53.478;10.182;2023-12-20T14:33:47;6.90;;;1.60;;